Time,TemperatureF,DewpointF,PressureIn,WindDirection,WindDirectionDegrees,WindSpeedMPH,WindSpeedGustMPH,Humidity,HourlyPrecipIn,Conditions,Clouds,dailyrainin,SoftwareType,DateUTC
2013-11-03 00:00:00,50.1,26.1,29.97,East,79,5.0,12.0,39,0.00,CLR,,0.00,WeatherDisplay:10.37,2013-11-03 05:00:00,
2013-11-03 00:30:00,48.3,25.1,29.97,ENE,61,1.0,7.0,40,0.00,CLR,,0.00,WeatherDisplay:10.37,2013-11-03 05:30:00,
2013-11-03 01:00:00,40.2,23.4,30.00,ENE,61,2.0,3.0,51,0.00,CLR,,0.00,WeatherDisplay:10.37,2013-11-03 06:00:00,
2013-11-03 01:30:00,38.7,23.9,29.99,North,6,1.0,3.0,55,0.00,CLR,,0.00,WeatherDisplay:10.37,2013-11-03 06:30:00,
2013-11-03 01:00:00,49.8,25.2,29.92,NNW,348,5.0,12.0,38,0.00,CLR,,0.00,WeatherDisplay:10.37,2013-11-03 07:00:00,
2013-11-03 01:30:00,51.9,27.1,29.89,SE,127,6.0,12.0,38,0.00,CLR,,0.00,WeatherDisplay:10.37,2013-11-03 07:30:00,
2013-11-03 02:00:00,49.8,28.8,29.90,NNE,14,0.0,12.0,44,0.00,CLR,,0.00,WeatherDisplay:10.37,2013-11-03 08:00:00,
2013-11-03 02:30:00,49.5,28.5,29.89,East,87,6.0,12.0,44,0.00,CLR,,0.00,WeatherDisplay:10.37,2013-11-03 08:30:00,
2013-11-03 03:00:00,49.9,28.9,29.86,ENE,75,8.0,14.0,44,0.00,CLR,,0.00,WeatherDisplay:10.37,2013-11-03 09:00:00,
2013-11-03 03:30:00,51.6,26.1,29.83,ESE,108,5.0,20.0,37,0.00,CLR,,0.00,WeatherDisplay:10.37,2013-11-03 09:30:00,
2013-11-03 04:00:00,48.7,27.7,29.84,ENE,68,5.0,12.0,44,0.00,CLR,,0.00,WeatherDisplay:10.37,2013-11-03 10:00:00,
2013-11-03 04:30:00,47.6,26.7,29.87,NE,45,1.0,8.0,44,0.00,CLR,,0.00,WeatherDisplay:10.37,2013-11-03 10:30:00,
2013-11-03 05:00:00,49.6,26.9,29.84,ENE,68,5.0,12.0,41,0.00,CLR,,0.00,WeatherDisplay:10.37,2013-11-03 11:00:00,
2013-11-03 05:30:00,54.4,25.1,29.83,South,175,3.0,12.0,32,0.00,CLR,,0.00,WeatherDisplay:10.37,2013-11-03 11:30:00,
2013-11-03 06:00:00,56.4,26.1,29.81,WSW,237,1.0,14.0,31,0.00,CLR,,0.00,WeatherDisplay:10.37,2013-11-03 12:00:00,
2013-11-03 06:30:00,52.2,28.0,29.85,ENE,76,5.0,8.0,39,0.00,CLR,,0.00,WeatherDisplay:10.37,2013-11-03 12:30:00,
2013-11-03 07:00:00,51.1,28.2,29.88,ENE,67,0.0,8.0,41,0.00,CLR,,0.00,WeatherDisplay:10.37,2013-11-03 13:00:00,
2013-11-03 07:30:00,51.3,36.1,29.91,West,263,1.0,7.0,56,0.00,CLR,,0.00,WeatherDisplay:10.37,2013-11-03 13:30:00,
2013-11-03 08:00:00,49.8,38.5,29.91,NNE,23,1.0,12.0,65,0.00,CLR,,0.00,WeatherDisplay:10.37,2013-11-03 14:00:00,
2013-11-03 08:30:00,47.7,39.8,29.91,ENE,74,2.0,12.0,74,0.01,CLR,,0.01,WeatherDisplay:10.37,2013-11-03 14:30:00,
2013-11-03 09:00:00,49.1,40.1,29.88,ENE,59,2.0,12.0,71,0.00,CLR,,0.01,WeatherDisplay:10.37,2013-11-03 15:00:00,
2013-11-03 09:30:00,51.1,40.2,29.88,NE,48,1.0,6.0,66,0.00,CLR,,0.01,WeatherDisplay:10.37,2013-11-03 15:30:00,
2013-11-03 10:00:00,52.3,40.5,29.89,ENE,72,2.0,8.0,64,0.00,CLR,,0.01,WeatherDisplay:10.37,2013-11-03 16:00:00,
2013-11-03 10:30:00,54.0,40.8,29.86,NNE,19,3.0,10.0,61,0.00,CLR,,0.01,WeatherDisplay:10.37,2013-11-03 16:30:00,
2013-11-03 11:00:00,54.4,39.5,29.88,SW,216,3.0,17.0,57,0.00,CLR,,0.01,WeatherDisplay:10.37,2013-11-03 17:00:00,
2013-11-03 11:30:00,55.7,39.8,29.92,SW,216,6.0,16.0,55,0.00,CLR,,0.01,WeatherDisplay:10.37,2013-11-03 17:30:00,
2013-11-03 12:00:00,57.0,40.5,29.89,SSW,194,8.0,18.0,54,0.00,CLR,,0.01,WeatherDisplay:10.37,2013-11-03 18:00:00,
2013-11-03 12:30:00,56.6,43.3,29.80,SW,232,8.0,18.0,61,0.00,CLR,,0.01,WeatherDisplay:10.37,2013-11-03 18:30:00,
2013-11-03 13:00:00,56.5,44.5,29.78,WSW,247,8.0,21.0,64,0.00,CLR,,0.01,WeatherDisplay:10.37,2013-11-03 19:00:00,
2013-11-03 13:30:00,56.0,44.0,29.79,SW,235,7.0,14.0,64,0.00,CLR,,0.01,WeatherDisplay:10.37,2013-11-03 19:30:00,
2013-11-03 14:00:00,57.1,43.3,29.79,ENE,71,2.0,8.0,60,0.00,CLR,,0.01,WeatherDisplay:10.37,2013-11-03 20:00:00,
2013-11-03 14:30:00,58.9,42.8,29.72,SW,235,1.0,13.0,55,0.00,CLR,,0.01,WeatherDisplay:10.37,2013-11-03 20:30:00,
2013-11-03 15:00:00,58.0,42.8,29.74,SSE,166,6.0,9.0,57,0.00,CLR,,0.01,WeatherDisplay:10.37,2013-11-03 21:00:00,
2013-11-03 15:30:00,56.5,42.3,29.76,SW,235,6.0,13.0,59,0.00,CLR,,0.01,WeatherDisplay:10.37,2013-11-03 21:30:00,
2013-11-03 16:00:00,57.0,41.9,29.76,West,272,3.0,14.0,57,0.00,CLR,,0.01,WeatherDisplay:10.37,2013-11-03 22:00:00,
2013-11-03 16:30:00,58.9,41.8,29.71,SSW,209,3.0,7.0,53,0.00,CLR,,0.01,WeatherDisplay:10.37,2013-11-03 22:30:00,
2013-11-03 17:00:00,56.5,43.6,29.74,SSW,196,0.0,6.0,62,0.00,CLR,,0.01,WeatherDisplay:10.37,2013-11-03 23:00:00,
2013-11-03 17:30:00,55.3,42.9,29.75,South,182,1.0,3.0,63,0.00,CLR,,0.01,WeatherDisplay:10.37,2013-11-03 23:30:00,
2013-11-03 18:00:00,54.5,43.0,29.75,NW,316,0.0,6.0,65,0.00,CLR,,0.01,WeatherDisplay:10.37,2013-11-04 00:00:00,
2013-11-03 18:31:00,52.9,43.0,29.76,NNE,21,2.0,5.0,69,0.00,CLR,,0.01,WeatherDisplay:10.37,2013-11-04 00:31:00,
2013-11-03 19:00:00,52.2,42.3,29.76,NE,37,0.0,5.0,69,0.00,CLR,,0.01,WeatherDisplay:10.37,2013-11-04 01:00:00,
2013-11-03 19:30:00,50.2,41.5,29.78,NE,37,0.0,3.0,72,0.00,CLR,,0.01,WeatherDisplay:10.37,2013-11-04 01:30:00,
2013-11-03 19:59:00,51.3,39.5,29.82,SSW,203,0.0,7.0,64,0.00,CLR,,0.01,WeatherDisplay:10.37,2013-11-04 01:59:00,
2013-11-03 20:29:00,50.2,40.0,29.83,SSW,204,1.0,3.0,68,0.00,CLR,,0.01,WeatherDisplay:10.37,2013-11-04 02:29:00,
2013-11-03 20:59:00,51.8,43.0,29.81,ENE,77,1.0,5.0,72,0.00,CLR,,0.01,WeatherDisplay:10.37,2013-11-04 02:59:00,
2013-11-03 21:29:00,50.7,43.4,29.79,ENE,76,0.0,2.0,76,0.00,CLR,,0.01,WeatherDisplay:10.37,2013-11-04 03:29:00,
2013-11-03 21:59:00,49.9,43.3,29.80,ENE,76,0.0,3.0,78,0.00,CLR,,0.01,WeatherDisplay:10.37,2013-11-04 03:59:00,
2013-11-03 22:29:00,51.4,43.4,29.77,West,265,1.0,6.0,74,0.00,CLR,,0.01,WeatherDisplay:10.37,2013-11-04 04:29:00,
2013-11-03 22:59:00,50.7,44.1,29.77,West,281,0.0,3.0,78,0.00,CLR,,0.01,WeatherDisplay:10.37,2013-11-04 04:59:00,
2013-11-03 23:29:00,50.8,45.2,29.76,South,172,1.0,8.0,81,0.00,CLR,,0.01,WeatherDisplay:10.37,2013-11-04 05:29:00,
2013-11-03 23:59:00,50.7,45.7,29.76,North,7,0.0,7.0,83,0.00,RA,,0.00,WeatherDisplay:10.37,2013-11-04 05:59:00,